Time;durP1;ratioP1;P1;durP2;ratioP2;P2;SDS_P1;SDS_P2;PMS_P1;PMS_P2;Temp;Humidity;BMP_temperature;BMP_pressure;BME280_temperature;BME280_humidity;BME280_pressure;Samples;Min_cycle;Max_cycle;Signal;HPM_P1;HPM_P2
2023/09/11 00:01:15;;;;;;;13.47;7.60;;;18.10;77.10;;;;;;4885642;29;20045;-88
2023/09/11 00:03:42;;;;;;;14.00;7.82;;;18.00;77.10;;;;;;4863175;29;20060;-88
2023/09/11 00:06:09;;;;;;;12.10;7.47;;;18.00;77.10;;;;;;4878743;29;20057;-88
2023/09/11 00:08:36;;;;;;;12.02;7.35;;;18.00;77.10;;;;;;4863297;29;20060;-88
2023/09/11 00:11:03;;;;;;;12.85;7.70;;;18.00;77.30;;;;;;4885586;29;20537;-88
2023/09/11 00:13:31;;;;;;;12.13;7.77;;;17.90;77.40;;;;;;4886439;29;20116;-89
2023/09/11 00:15:58;;;;;;;14.23;8.07;;;17.90;77.50;;;;;;4863422;29;20045;-88
2023/09/11 00:18:25;;;;;;;14.05;8.20;;;17.90;77.40;;;;;;4888304;29;20076;-89
2023/09/11 00:20:52;;;;;;;11.35;7.40;;;17.90;77.50;;;;;;4863160;29;20049;-88
2023/09/11 00:23:19;;;;;;;13.68;8.00;;;17.90;77.40;;;;;;4863178;29;20052;-89
2023/09/11 00:25:46;;;;;;;14.53;7.87;;;17.90;77.50;;;;;;4889576;29;20098;-89
2023/09/11 00:28:14;;;;;;;12.57;8.05;;;17.90;77.60;;;;;;4884080;29;20057;-88
2023/09/11 00:30:41;;;;;;;12.80;7.93;;;17.80;77.80;;;;;;4879113;29;20096;-88
2023/09/11 00:33:08;;;;;;;13.25;8.20;;;17.80;77.80;;;;;;4882453;29;20139;-89
2023/09/11 00:35:36;;;;;;;12.20;7.25;;;17.80;77.90;;;;;;4882452;29;20052;-88
2023/09/11 00:38:03;;;;;;;12.90;7.83;;;17.70;78.00;;;;;;4882181;29;20077;-89
2023/09/11 00:40:30;;;;;;;13.38;7.32;;;17.80;77.90;;;;;;4851777;29;20056;-89
2023/09/11 00:42:57;;;;;;;11.38;7.50;;;17.90;77.80;;;;;;4878436;29;20057;-90
2023/09/11 00:45:24;;;;;;;13.15;7.72;;;17.80;77.80;;;;;;4871318;29;20049;-89
2023/09/11 00:47:51;;;;;;;13.52;7.72;;;17.80;78.00;;;;;;4874207;29;20178;-89
2023/09/11 00:50:19;;;;;;;12.50;7.50;;;17.70;78.00;;;;;;4868022;29;20511;-89
2023/09/11 00:52:47;;;;;;;11.95;7.00;;;17.70;78.00;;;;;;4881698;29;20045;-89
2023/09/11 00:55:14;;;;;;;13.13;8.05;;;17.70;77.90;;;;;;4875236;29;20048;-89
2023/09/11 00:57:42;;;;;;;11.65;7.50;;;17.70;77.80;;;;;;4857894;29;20053;-90
2023/09/11 01:00:11;;;;;;;12.43;7.25;;;17.60;77.80;;;;;;4866887;29;20137;-89
2023/09/11 01:02:38;;;;;;;15.03;7.97;;;17.70;77.80;;;;;;4866619;29;20060;-89
2023/09/11 01:05:09;;;;;;;12.25;7.13;;;17.70;77.60;;;;;;4882400;29;20098;-90
2023/09/11 01:07:36;;;;;;;13.40;7.75;;;17.60;77.60;;;;;;4866735;29;20041;-89
2023/09/11 01:10:06;;;;;;;12.45;8.02;;;17.70;77.60;;;;;;4881951;29;20041;-89
2023/09/11 01:12:36;;;;;;;12.65;7.72;;;17.60;77.80;;;;;;4869907;29;20053;-89
2023/09/11 01:15:07;;;;;;;12.57;7.83;;;17.60;78.00;;;;;;4866314;29;20078;-89
2023/09/11 01:17:40;;;;;;;12.65;7.85;;;17.50;78.00;;;;;;4873683;29;20053;-89
2023/09/11 01:20:14;;;;;;;14.85;7.78;;;17.50;78.10;;;;;;4862423;29;20041;-90
2023/09/11 01:23:26;;;;;;;12.38;8.13;;;17.50;78.20;;;;;;4880731;29;20512;-89
2023/09/11 01:26:27;;;;;;;12.23;7.78;;;17.50;78.10;;;;;;4845338;29;20060;-89
2023/09/11 01:29:10;;;;;;;11.40;7.50;;;17.50;78.20;;;;;;4877429;29;20049;-89
2023/09/11 01:31:38;;;;;;;14.70;7.47;;;17.50;78.30;;;;;;4874030;29;20049;-90
2023/09/11 01:34:07;;;;;;;12.43;7.82;;;17.50;78.10;;;;;;4876245;29;20041;-89
2023/09/11 01:36:34;;;;;;;11.98;7.68;;;17.50;78.20;;;;;;4881287;29;20053;-89
2023/09/11 01:39:01;;;;;;;13.38;7.65;;;17.40;78.30;;;;;;4881615;29;20522;-89
2023/09/11 01:41:37;;;;;;;13.83;8.00;;;17.40;78.30;;;;;;4881750;29;20136;-90
2023/09/11 01:44:16;;;;;;;11.85;7.63;;;17.40;78.50;;;;;;4867750;29;20105;-89
2023/09/11 01:46:45;;;;;;;16.05;7.68;;;17.40;78.60;;;;;;4866464;29;20049;-89
2023/09/11 01:49:14;;;;;;;15.30;8.15;;;17.40;78.60;;;;;;4881880;29;20495;-89
2023/09/11 01:51:42;;;;;;;12.63;7.95;;;17.40;78.60;;;;;;4881591;29;20049;-89
2023/09/11 01:54:10;;;;;;;12.00;7.60;;;17.40;78.50;;;;;;4881539;29;20033;-89
2023/09/11 01:56:37;;;;;;;15.52;7.88;;;17.40;78.40;;;;;;4865900;29;20055;-89
2023/09/11 01:59:04;;;;;;;13.30;7.43;;;17.40;78.40;;;;;;4881743;29;20052;-90
2023/09/11 02:04:26;;;;;;;14.82;7.75;;;17.50;78.40;;;;;;763333;23;21641;-91
2023/09/11 02:06:54;;;;;;;13.23;7.87;;;17.50;78.50;;;;;;4922879;29;20055;-93
2023/09/11 02:09:22;;;;;;;12.07;7.10;;;17.50;78.40;;;;;;4926194;29;20048;-93
2023/09/11 02:11:50;;;;;;;11.95;7.10;;;17.50;78.30;;;;;;4925505;29;20048;-93
2023/09/11 02:14:17;;;;;;;13.77;7.32;;;17.50;78.20;;;;;;4908487;29;20043;-93
2023/09/11 02:16:44;;;;;;;14.90;8.02;;;17.50;78.10;;;;;;4905037;29;20139;-93
2023/09/11 02:19:12;;;;;;;15.77;7.70;;;17.50;78.20;;;;;;4908107;29;20044;-93
2023/09/11 02:21:42;;;;;;;12.18;7.32;;;17.50;78.10;;;;;;4924682;29;20048;-93
2023/09/11 02:24:12;;;;;;;12.30;7.75;;;17.50;78.00;;;;;;4923539;29;20052;-94
2023/09/11 02:26:39;;;;;;;12.68;7.53;;;17.50;78.00;;;;;;4909988;29;20055;-93
2023/09/11 02:29:06;;;;;;;12.85;7.80;;;17.40;78.20;;;;;;4926233;29;20386;-93
2023/09/11 02:31:34;;;;;;;14.10;7.33;;;17.50;78.20;;;;;;4910955;29;20052;-93
2023/09/11 02:34:01;;;;;;;11.77;7.03;;;17.40;78.20;;;;;;4910755;29;20043;-93
2023/09/11 02:36:29;;;;;;;11.52;6.80;;;17.40;78.20;;;;;;4925015;29;20043;-94
2023/09/11 02:38:56;;;;;;;15.25;7.88;;;17.30;78.30;;;;;;4904925;29;20084;-94
2023/09/11 02:41:24;;;;;;;12.75;7.72;;;17.30;78.50;;;;;;4908093;29;20040;-94
2023/09/11 02:43:51;;;;;;;12.90;7.70;;;17.30;78.30;;;;;;4909518;29;20048;-94
2023/09/11 02:46:21;;;;;;;14.35;7.53;;;17.30;78.30;;;;;;4906857;29;20052;-94
2023/09/11 02:48:48;;;;;;;12.43;7.47;;;17.30;78.40;;;;;;4922772;29;20048;-93
2023/09/11 02:51:17;;;;;;;14.43;8.15;;;17.20;78.50;;;;;;4925264;29;20051;-95
2023/09/11 02:53:44;;;;;;;12.30;7.57;;;17.20;78.60;;;;;;4922733;29;20409;-93
2023/09/11 02:56:12;;;;;;;13.03;7.87;;;17.10;78.70;;;;;;4922886;29;20079;-94
2023/09/11 02:58:39;;;;;;;12.05;7.15;;;17.10;78.60;;;;;;4904826;29;20076;-94
2023/09/11 03:01:06;;;;;;;10.98;7.30;;;17.20;78.40;;;;;;4907975;29;20141;-95
2023/09/11 03:03:39;;;;;;;11.52;7.38;;;17.20;78.30;;;;;;4923100;29;20078;-95
2023/09/11 03:06:06;;;;;;;14.38;7.57;;;17.10;78.40;;;;;;4903788;29;20092;-92
2023/09/11 03:08:34;;;;;;;12.43;7.30;;;17.20;78.30;;;;;;4922240;29;20051;-93
2023/09/11 03:11:09;;;;;;;12.50;7.25;;;17.10;78.30;;;;;;4922487;29;20138;-94
2023/09/11 03:17:41;;;;;;;13.90;7.82;;;17.10;78.50;;;;;;4934027;29;20092;-92
2023/09/11 03:20:09;;;;;;;14.02;7.85;;;17.00;78.70;;;;;;4906587;29;21602;-92
2023/09/11 03:22:36;;;;;;;12.97;8.20;;;17.00;78.70;;;;;;4922728;29;20095;-92
2023/09/11 03:25:05;;;;;;;13.20;8.00;;;17.00;78.80;;;;;;4923254;29;20052;-92
2023/09/11 03:27:33;;;;;;;12.43;8.10;;;17.00;78.80;;;;;;4907583;29;20424;-93
2023/09/11 03:30:00;;;;;;;13.40;7.60;;;17.00;78.80;;;;;;4921983;29;20052;-94
2023/09/11 03:32:29;;;;;;;14.00;7.57;;;17.00;78.80;;;;;;4921535;29;20043;-94
2023/09/11 03:34:56;;;;;;;13.43;7.80;;;17.00;78.80;;;;;;4920931;29;20134;-93
2023/09/11 03:37:24;;;;;;;12.32;7.65;;;17.00;78.80;;;;;;4905758;29;20453;-93
2023/09/11 03:39:58;;;;;;;12.98;7.95;;;17.00;78.70;;;;;;4922463;29;20116;-93
2023/09/11 03:42:29;;;;;;;13.20;8.00;;;17.10;78.60;;;;;;4922361;29;20044;-93
2023/09/11 03:44:57;;;;;;;12.35;8.15;;;17.00;78.50;;;;;;4922533;29;20043;-94
2023/09/11 03:47:27;;;;;;;13.13;7.33;;;17.00;78.60;;;;;;4921684;29;20060;-93
2023/09/11 03:49:55;;;;;;;11.30;7.80;;;17.00;78.70;;;;;;4922884;29;20107;-93
2023/09/11 03:52:22;;;;;;;16.33;7.60;;;17.00;78.70;;;;;;4906400;29;20082;-92
2023/09/11 03:54:49;;;;;;;15.05;8.18;;;17.00;78.70;;;;;;4907662;29;20457;-93
2023/09/11 03:57:17;;;;;;;12.65;7.43;;;17.00;78.80;;;;;;4923377;29;20047;-93
2023/09/11 03:59:45;;;;;;;14.67;7.87;;;17.00;78.50;;;;;;4906880;29;20039;-93
2023/09/11 04:02:12;;;;;;;13.05;7.53;;;17.00;78.20;;;;;;4906559;29;20102;-93
2023/09/11 04:04:40;;;;;;;12.75;7.85;;;17.00;78.30;;;;;;4921935;29;20044;-93
2023/09/11 04:07:07;;;;;;;13.55;8.18;;;17.00;78.50;;;;;;4923088;29;20044;-94
2023/09/11 04:09:34;;;;;;;12.80;8.02;;;17.00;78.60;;;;;;4923609;29;20054;-93
2023/09/11 04:12:03;;;;;;;13.80;8.20;;;16.90;78.50;;;;;;4906520;29;20151;-93
2023/09/11 04:14:30;;;;;;;14.50;8.27;;;16.80;78.60;;;;;;4905285;29;20062;-94
2023/09/11 04:16:58;;;;;;;11.93;7.53;;;16.80;78.80;;;;;;4907057;29;20115;-93
2023/09/11 04:19:25;;;;;;;11.93;7.75;;;16.80;78.90;;;;;;4924742;29;20528;-93
2023/09/11 04:21:53;;;;;;;13.25;7.93;;;16.70;79.00;;;;;;4910214;29;20139;-93
2023/09/11 04:24:20;;;;;;;12.87;8.30;;;16.70;79.00;;;;;;4925746;29;20056;-93
2023/09/11 04:26:48;;;;;;;13.23;8.00;;;16.80;79.00;;;;;;4925506;29;20090;-93
2023/09/11 04:29:16;;;;;;;15.95;7.90;;;16.80;78.90;;;;;;4925067;29;20040;-93
2023/09/11 04:31:43;;;;;;;12.95;7.53;;;16.80;78.80;;;;;;4924080;29;20457;-93
2023/09/11 04:34:11;;;;;;;11.85;7.18;;;16.90;78.70;;;;;;4924831;29;20474;-93
2023/09/11 04:36:38;;;;;;;13.20;7.50;;;16.90;78.50;;;;;;4922788;29;20044;-92
2023/09/11 04:39:05;;;;;;;13.85;7.60;;;17.00;78.50;;;;;;4920247;29;20048;-92
2023/09/11 04:41:33;;;;;;;11.10;7.07;;;17.00;78.60;;;;;;4904590;29;20175;-91
2023/09/11 04:44:00;;;;;;;10.98;7.00;;;17.00;78.40;;;;;;4904415;29;20142;-92
2023/09/11 04:46:27;;;;;;;15.20;9.13;;;17.00;78.30;;;;;;4920309;29;20523;-93
2023/09/11 04:48:55;;;;;;;12.93;7.17;;;17.10;78.10;;;;;;4920354;29;20437;-92
2023/09/11 04:51:24;;;;;;;11.50;7.65;;;17.10;78.00;;;;;;4921248;29;20047;-93
2023/09/11 04:53:52;;;;;;;11.00;6.43;;;17.10;77.80;;;;;;4922602;29;20043;-92
2023/09/11 04:56:20;;;;;;;14.15;7.43;;;17.10;77.80;;;;;;4908416;29;20043;-96
2023/09/11 04:58:54;;;;;;;10.77;6.88;;;17.10;77.80;;;;;;4911957;29;20111;-94
2023/09/11 05:01:28;;;;;;;13.13;7.20;;;17.10;78.10;;;;;;4912101;29;20527;-93
2023/09/11 05:03:55;;;;;;;12.52;6.72;;;17.20;77.80;;;;;;4908827;29;20047;-93
2023/09/11 05:06:25;;;;;;;11.70;6.55;;;17.20;77.70;;;;;;4908929;29;20146;-94
2023/09/11 05:08:53;;;;;;;11.50;7.13;;;17.30;77.50;;;;;;4911004;29;20539;-94
2023/09/11 05:11:29;;;;;;;13.32;7.30;;;17.30;77.50;;;;;;4914696;29;20048;-94
2023/09/11 05:13:56;;;;;;;12.07;7.00;;;17.30;77.40;;;;;;4917143;29;20095;-92
2023/09/11 05:16:24;;;;;;;11.75;7.35;;;17.30;77.40;;;;;;4909078;29;20150;-93
2023/09/11 05:19:18;;;;;;;11.55;7.65;;;17.30;77.40;;;;;;4913578;29;20052;-95
2023/09/11 05:22:35;;;;;;;12.30;6.75;;;17.30;77.50;;;;;;4917326;29;20462;-96
2023/09/11 05:29:56;;;;;;;14.20;7.03;;;17.30;77.50;;;;;;4949132;29;20035;-96
2023/09/11 05:32:27;;;;;;;10.18;6.45;;;17.30;77.50;;;;;;4911202;29;20095;-94
2023/09/11 05:34:55;;;;;;;12.32;7.50;;;17.30;77.50;;;;;;4910588;29;20138;-94
2023/09/11 05:55:54;;;;;;;10.02;6.47;;;17.90;76.70;;;;;;4877870;29;20129;-93
2023/09/11 05:58:22;;;;;;;10.77;6.47;;;18.00;76.50;;;;;;4871986;29;20053;-95
2023/09/11 06:00:56;;;;;;;14.98;6.93;;;18.20;75.80;;;;;;4861417;29;20052;-94
2023/09/11 06:03:26;;;;;;;12.00;6.43;;;18.30;75.30;;;;;;4891949;29;20049;-95
2023/09/11 06:05:59;;;;;;;11.52;6.32;;;18.40;75.50;;;;;;4896106;29;20060;-95
2023/09/11 06:08:44;;;;;;;12.18;6.45;;;18.60;75.00;;;;;;4874238;29;20491;-95
2023/09/11 06:11:11;;;;;;;12.13;6.03;;;18.60;74.50;;;;;;4875402;29;20056;-95
2023/09/11 06:13:40;;;;;;;9.77;6.30;;;18.70;74.10;;;;;;4895084;29;20462;-95
2023/09/11 06:16:31;;;;;;;13.30;6.30;;;18.80;74.20;;;;;;4896968;29;20075;-96
2023/09/11 06:19:35;;;;;;;11.50;6.38;;;19.00;74.00;;;;;;5021113;23;20048;-96
2023/09/11 06:22:05;;;;;;;12.02;6.82;;;19.10;73.80;;;;;;4957658;28;20054;-95
2023/09/11 06:24:33;;;;;;;10.93;6.55;;;19.20;73.70;;;;;;4938252;29;20047;-93
2023/09/11 06:27:06;;;;;;;10.65;6.05;;;19.30;73.00;;;;;;4933066;29;20048;-94
2023/09/11 06:29:35;;;;;;;11.53;6.93;;;19.40;72.80;;;;;;5096651;23;20088;-95
2023/09/11 06:32:05;;;;;;;11.80;6.22;;;19.50;73.10;;;;;;4937089;29;20040;-95
2023/09/11 06:34:33;;;;;;;12.48;6.60;;;19.60;72.60;;;;;;5068313;23;20050;-96
2023/09/11 06:37:03;;;;;;;12.23;6.63;;;19.70;72.80;;;;;;4959040;29;20051;-96
2023/09/11 06:39:34;;;;;;;12.98;6.68;;;19.80;72.10;;;;;;4938129;29;20078;-96
2023/09/11 06:44:52;;;;;;;10.40;6.07;;;20.10;71.90;;;;;;4944475;29;20503;-95
2023/09/11 06:47:25;;;;;;;14.75;7.13;;;20.10;71.60;;;;;;4935084;29;20036;-96
2023/09/11 06:49:53;;;;;;;9.63;6.22;;;20.20;71.80;;;;;;4949343;29;20047;-95
2023/09/11 06:52:21;;;;;;;10.27;6.25;;;20.30;72.00;;;;;;4948391;29;20043;-95
2023/09/11 06:54:49;;;;;;;11.53;5.97;;;20.40;70.90;;;;;;4933374;29;20054;-96
2023/09/11 06:57:18;;;;;;;14.45;6.80;;;20.40;71.50;;;;;;4949677;29;20047;-95
2023/09/11 06:59:45;;;;;;;9.82;6.38;;;20.60;71.00;;;;;;4944740;29;20417;-95
2023/09/11 07:02:15;;;;;;;12.23;6.47;;;20.60;70.50;;;;;;4941750;29;20047;-94
2023/09/11 07:04:42;;;;;;;11.93;6.47;;;20.70;71.30;;;;;;4924700;29;20568;-95
2023/09/11 07:07:10;;;;;;;11.67;6.30;;;20.80;71.40;;;;;;4924830;29;20477;-95
2023/09/11 07:09:37;;;;;;;15.88;6.78;;;21.00;70.60;;;;;;4940549;29;20509;-95
2023/09/11 07:16:09;;;;;;;9.98;5.97;;;21.10;69.50;;;;;;4958488;29;20094;-95
2023/09/11 07:18:36;;;;;;;11.27;6.75;;;21.30;70.00;;;;;;4941343;29;20492;-96
2023/09/11 07:21:06;;;;;;;9.73;6.10;;;21.50;69.80;;;;;;4924294;29;20039;-95
2023/09/11 07:23:34;;;;;;;11.48;6.28;;;21.60;69.70;;;;;;4926478;29;20497;-94
2023/09/11 07:26:02;;;;;;;10.05;5.97;;;21.60;70.10;;;;;;4940957;29;20082;-95
2023/09/11 07:28:34;;;;;;;11.23;6.30;;;21.80;68.70;;;;;;4926427;29;20051;-94
2023/09/11 07:31:05;;;;;;;10.27;6.47;;;21.90;68.90;;;;;;4943802;29;20497;-94
2023/09/11 07:33:32;;;;;;;9.90;6.30;;;22.00;68.00;;;;;;4943269;29;20441;-95
2023/09/11 07:36:02;;;;;;;15.07;6.60;;;22.10;68.10;;;;;;4959508;29;20035;-96
2023/09/11 07:38:44;;;;;;;;;;;;;;;;;;;;;
2023/09/11 07:42:05;;;;;;;12.50;6.85;;;22.30;66.70;;;;;;4905790;29;20068;-96
2023/09/11 07:44:33;;;;;;;11.68;7.50;;;22.50;67.60;;;;;;4896163;29;20052;-96
2023/09/11 07:47:12;;;;;;;15.03;7.13;;;22.60;66.70;;;;;;4934058;29;20051;-95
2023/09/11 07:49:40;;;;;;;16.70;6.88;;;22.70;66.60;;;;;;4946395;29;20106;-96
2023/09/11 07:52:08;;;;;;;13.18;7.57;;;22.70;66.40;;;;;;4926254;29;20051;-94
2023/09/11 07:55:15;;;;;;;13.10;7.20;;;22.90;67.20;;;;;;4952787;29;20504;-95
2023/09/11 07:57:58;;;;;;;13.00;7.57;;;23.00;66.20;;;;;;4966524;28;20043;-96
2023/09/11 08:00:41;;;;;;;14.17;7.63;;;23.10;66.00;;;;;;4948862;29;20070;-96
2023/09/11 08:08:04;;;;;;;13.38;8.18;;;23.30;64.80;;;;;;4950242;29;20047;-95
2023/09/11 08:10:33;;;;;;;15.93;8.05;;;23.50;63.70;;;;;;4933254;29;20050;-94
2023/09/11 08:13:00;;;;;;;14.45;8.15;;;23.60;65.00;;;;;;4941135;29;20043;-95
2023/09/11 08:15:29;;;;;;;14.30;6.97;;;23.60;64.00;;;;;;4942923;29;20425;-96
2023/09/11 08:17:57;;;;;;;10.95;6.50;;;23.80;63.50;;;;;;4941393;29;20075;-96
2023/09/11 08:20:36;;;;;;;21.73;6.95;;;23.90;62.50;;;;;;4944878;29;20043;-96
2023/09/11 08:23:09;;;;;;;14.32;6.10;;;24.10;63.40;;;;;;4943876;29;20047;-95
2023/09/11 08:25:44;;;;;;;12.10;5.60;;;24.20;62.70;;;;;;4943232;29;20047;-96
2023/09/11 08:50:23;;;;;;;10.13;5.90;;;25.10;61.10;;;;;;4858930;29;20058;-96
2023/09/11 08:53:25;;;;;;;10.80;5.65;;;25.20;61.30;;;;;;4867007;29;20072;-96
2023/09/11 09:00:38;;;;;;;10.60;5.80;;;25.40;58.60;;;;;;5509792;23;20078;-96
2023/09/11 09:11:58;;;;;;;;;;;;;;;;;;;;;
2023/09/11 09:19:31;;;;;;;10.25;5.32;;;26.00;55.70;;;;;;4902344;29;20044;-95
2023/09/11 09:22:06;;;;;;;9.48;5.55;;;26.10;57.10;;;;;;4886905;29;20495;-96
2023/09/11 09:24:46;;;;;;;12.50;5.80;;;26.10;55.90;;;;;;4878335;29;20138;-96
2023/09/11 09:27:14;;;;;;;9.95;5.75;;;26.10;56.00;;;;;;4894907;29;20147;-95
2023/09/11 09:29:41;;;;;;;10.48;5.70;;;26.30;56.00;;;;;;4871579;29;20553;-96
2023/09/11 09:32:09;;;;;;;10.27;5.55;;;26.30;56.00;;;;;;4875133;29;20077;-95
2023/09/11 09:34:42;;;;;;;120.57;13.02;;;26.40;56.50;;;;;;4872959;29;20045;-96
2023/09/11 09:37:20;;;;;;;15.97;6.37;;;26.60;55.60;;;;;;4874536;29;20550;-95
2023/09/11 09:39:50;;;;;;;14.48;6.43;;;26.60;56.80;;;;;;4876506;29;20119;-95
2023/09/11 09:42:18;;;;;;;13.05;6.22;;;26.60;57.10;;;;;;4890228;29;20120;-95
2023/09/11 09:44:52;;;;;;;14.10;6.43;;;26.70;55.60;;;;;;4904285;29;20054;-96
2023/09/11 09:47:22;;;;;;;12.15;6.30;;;26.70;57.40;;;;;;4932518;29;20062;-95
2023/09/11 09:49:54;;;;;;;14.40;6.37;;;26.80;56.00;;;;;;4929855;29;20058;-96
2023/09/11 09:52:25;;;;;;;9.95;5.78;;;26.80;54.50;;;;;;4927404;29;20062;-96
2023/09/11 09:54:59;;;;;;;10.85;6.07;;;26.80;54.30;;;;;;4928637;29;20150;-96
2023/09/11 09:57:27;;;;;;;11.65;6.22;;;26.80;54.80;;;;;;4942188;29;20051;-95
2023/09/11 09:59:57;;;;;;;9.48;5.13;;;26.80;53.50;;;;;;4926794;29;20054;-95
2023/09/11 10:02:32;;;;;;;11.23;6.00;;;26.80;52.30;;;;;;4926841;29;20102;-96
2023/09/11 10:05:06;;;;;;;9.75;5.88;;;26.90;52.30;;;;;;4929627;29;20047;-96
2023/09/11 10:07:41;;;;;;;11.00;5.35;;;27.00;53.80;;;;;;4930578;29;20051;-96
2023/09/11 10:10:33;;;;;;;10.00;5.38;;;27.00;53.30;;;;;;4930461;29;20049;-96
2023/09/11 10:13:01;;;;;;;14.95;5.47;;;27.00;53.80;;;;;;4927493;29;20055;-96
2023/09/11 10:15:30;;;;;;;10.93;5.00;;;27.00;53.00;;;;;;4930663;29;20133;-95
2023/09/11 10:17:57;;;;;;;10.68;5.72;;;27.10;53.30;;;;;;4928723;29;20047;-95
2023/09/11 10:20:26;;;;;;;10.13;5.40;;;27.00;53.50;;;;;;4932121;29;20043;-96
2023/09/11 10:23:02;;;;;;;11.18;5.72;;;27.00;53.60;;;;;;4928896;29;20097;-95
2023/09/11 10:25:42;;;;;;;11.75;5.72;;;27.00;51.80;;;;;;4928426;29;20065;-96
2023/09/11 10:28:35;;;;;;;10.53;5.87;;;27.10;52.10;;;;;;4927996;29;20417;-96
2023/09/11 10:31:14;;;;;;;9.10;5.22;;;27.10;54.00;;;;;;4928872;29;20050;-96
2023/09/11 10:33:50;;;;;;;9.73;5.45;;;27.10;51.90;;;;;;4941790;29;20051;-94
2023/09/11 10:36:21;;;;;;;11.05;7.03;;;27.20;53.40;;;;;;4941904;29;20078;-94
2023/09/11 10:38:52;;;;;;;11.13;5.80;;;27.30;53.70;;;;;;4941493;29;20043;-95
2023/09/11 10:41:19;;;;;;;11.47;5.63;;;27.30;51.50;;;;;;4926024;29;20043;-94
2023/09/11 10:43:47;;;;;;;9.00;5.00;;;27.30;51.50;;;;;;4925210;29;20047;-94
2023/09/11 10:46:32;;;;;;;10.10;5.10;;;27.40;53.40;;;;;;4925686;29;20047;-93
2023/09/11 10:49:00;;;;;;;11.23;5.50;;;27.40;52.40;;;;;;4925130;29;20055;-95
2023/09/11 10:51:31;;;;;;;14.20;6.05;;;27.50;53.60;;;;;;4925217;29;20078;-95
2023/09/11 10:53:58;;;;;;;10.03;5.50;;;27.60;54.10;;;;;;4925465;29;20086;-94
2023/09/11 10:56:33;;;;;;;10.48;5.13;;;27.60;52.10;;;;;;4924838;29;20082;-94
2023/09/11 10:59:01;;;;;;;11.10;5.65;;;27.60;53.40;;;;;;4925866;29;20048;-94
2023/09/11 11:01:28;;;;;;;10.68;5.75;;;27.60;51.50;;;;;;4925314;29;20035;-94
2023/09/11 11:03:56;;;;;;;13.02;5.63;;;27.60;52.00;;;;;;4940611;29;20047;-94
2023/09/11 11:06:24;;;;;;;10.20;5.80;;;27.60;52.60;;;;;;4924919;29;20493;-94
2023/09/11 11:08:52;;;;;;;10.93;5.85;;;27.70;51.40;;;;;;4924331;29;20055;-95
2023/09/11 11:11:24;;;;;;;10.77;5.82;;;27.80;51.10;;;;;;4924442;29;20075;-93
2023/09/11 11:14:11;;;;;;;11.00;5.97;;;27.90;53.00;;;;;;4924732;29;20539;-94
2023/09/11 11:16:39;;;;;;;9.15;5.20;;;28.00;52.90;;;;;;4940892;29;20501;-95
2023/09/11 11:19:06;;;;;;;10.70;5.77;;;28.00;51.80;;;;;;4924546;29;20043;-95
2023/09/11 11:21:39;;;;;;;10.75;5.45;;;28.00;52.20;;;;;;4924589;29;20044;-94
2023/09/11 11:24:09;;;;;;;10.88;5.50;;;28.10;52.50;;;;;;4924610;29;20051;-95
2023/09/11 11:26:37;;;;;;;9.48;6.68;;;28.10;53.10;;;;;;4939992;29;20417;-94
2023/09/11 11:29:05;;;;;;;10.77;6.30;;;28.30;52.80;;;;;;4924632;29;20555;-93
2023/09/11 11:31:32;;;;;;;10.37;5.63;;;28.40;52.80;;;;;;4924917;29;20409;-94
2023/09/11 11:34:04;;;;;;;11.30;6.00;;;28.40;51.30;;;;;;4939975;29;20063;-93
2023/09/11 11:36:31;;;;;;;9.75;5.80;;;28.40;52.80;;;;;;4924254;29;20051;-95
2023/09/11 11:38:59;;;;;;;11.48;5.63;;;28.40;51.70;;;;;;4940663;29;20509;-93
2023/09/11 11:41:30;;;;;;;9.75;5.32;;;28.40;52.70;;;;;;4924168;29;20071;-93
2023/09/11 11:43:58;;;;;;;10.03;5.43;;;28.40;51.40;;;;;;4924358;29;20048;-95
2023/09/11 11:46:29;;;;;;;10.43;5.25;;;28.30;51.00;;;;;;4924505;29;20094;-93
2023/09/11 11:48:57;;;;;;;10.68;5.45;;;28.40;50.40;;;;;;4923990;29;20051;-94
2023/09/11 11:51:30;;;;;;;9.30;5.57;;;28.50;51.20;;;;;;4924166;29;20078;-94
2023/09/11 11:53:59;;;;;;;10.07;5.68;;;28.50;51.70;;;;;;4939974;29;20051;-93
2023/09/11 11:56:27;;;;;;;40.53;7.53;;;28.60;51.10;;;;;;4923987;29;20496;-94
2023/09/11 11:58:57;;;;;;;13.18;6.05;;;28.60;51.00;;;;;;4923883;29;20047;-94
2023/09/11 12:01:24;;;;;;;10.95;5.75;;;28.60;50.50;;;;;;4923751;29;20177;-93
2023/09/11 12:03:51;;;;;;;11.40;6.13;;;28.80;51.10;;;;;;4923762;29;20043;-94
2023/09/11 12:06:20;;;;;;;9.30;5.50;;;28.80;51.30;;;;;;4939641;29;20142;-94
2023/09/11 12:08:48;;;;;;;12.13;5.33;;;28.90;50.60;;;;;;4923743;29;20051;-93
2023/09/11 12:11:15;;;;;;;9.30;5.28;;;29.00;49.40;;;;;;4923675;29;20059;-95
2023/09/11 12:13:43;;;;;;;10.70;5.78;;;29.00;50.10;;;;;;4923922;29;20059;-93
2023/09/11 12:16:17;;;;;;;8.88;5.30;;;29.00;50.70;;;;;;4924557;29;20637;-94
2023/09/11 12:18:44;;;;;;;9.68;5.45;;;29.00;48.40;;;;;;4923916;29;20408;-94
2023/09/11 12:21:12;;;;;;;13.33;5.60;;;29.10;50.20;;;;;;4925357;29;20078;-94
2023/09/11 12:23:39;;;;;;;11.65;5.72;;;29.10;49.00;;;;;;4927751;29;20043;-94
2023/09/11 12:26:06;;;;;;;9.50;5.50;;;29.10;49.00;;;;;;4927781;29;20516;-94
2023/09/11 12:28:34;;;;;;;11.48;7.95;;;29.10;50.10;;;;;;4928029;29;20069;-94
2023/09/11 12:31:01;;;;;;;11.18;6.93;;;29.10;47.70;;;;;;4927615;29;20059;-93
2023/09/11 12:33:34;;;;;;;11.60;6.70;;;29.10;48.60;;;;;;4928484;29;20047;-93
2023/09/11 12:36:02;;;;;;;11.98;6.60;;;29.10;48.40;;;;;;4927715;29;20098;-93
2023/09/11 12:38:30;;;;;;;8.30;5.28;;;29.10;49.10;;;;;;4927653;29;20485;-94
2023/09/11 12:40:57;;;;;;;15.18;5.10;;;29.20;48.40;;;;;;4928041;29;20106;-91
2023/09/11 12:43:25;;;;;;;10.63;5.32;;;29.10;47.10;;;;;;4923722;29;20048;-90
2023/09/11 12:45:53;;;;;;;13.43;7.73;;;29.10;48.30;;;;;;4923871;29;20058;-91
2023/09/11 12:48:21;;;;;;;14.15;8.05;;;29.20;48.20;;;;;;4927038;29;20147;-91
2023/09/11 12:50:49;;;;;;;17.45;6.82;;;29.30;48.90;;;;;;4942642;29;20055;-91
2023/09/11 12:53:16;;;;;;;11.45;6.47;;;29.30;48.80;;;;;;4927109;29;20505;-91
2023/09/11 12:55:48;;;;;;;12.68;6.45;;;29.30;47.50;;;;;;4923721;29;20165;-92
2023/09/11 12:58:17;;;;;;;10.00;4.87;;;29.30;47.80;;;;;;4923874;29;20434;-92
2023/09/11 13:00:47;;;;;;;10.98;6.13;;;29.30;47.40;;;;;;4926083;29;20529;-91
2023/09/11 13:03:15;;;;;;;11.25;5.60;;;29.40;47.70;;;;;;4943548;29;20087;-92
2023/09/11 13:05:43;;;;;;;14.27;7.78;;;29.30;48.70;;;;;;4909402;29;20047;-91
2023/09/11 13:08:10;;;;;;;12.77;7.47;;;29.30;48.80;;;;;;4923468;29;20051;-91
2023/09/11 13:10:38;;;;;;;9.17;5.97;;;29.30;48.30;;;;;;4935430;29;20052;-91
2023/09/11 13:13:05;;;;;;;12.55;6.97;;;29.30;48.70;;;;;;4921199;29;20072;-91
2023/09/11 13:15:35;;;;;;;10.15;6.75;;;29.40;50.00;;;;;;4918113;29;20048;-91
2023/09/11 13:18:03;;;;;;;12.45;7.00;;;29.30;47.90;;;;;;4926383;29;20049;-91
2023/09/11 13:20:30;;;;;;;13.63;6.82;;;29.40;49.60;;;;;;4928153;29;20047;-91
2023/09/11 13:22:57;;;;;;;16.30;9.10;;;29.40;48.70;;;;;;4923189;29;20054;-91
2023/09/11 13:25:24;;;;;;;12.07;6.68;;;29.40;49.00;;;;;;4923090;29;20052;-91
2023/09/11 13:27:51;;;;;;;11.15;6.82;;;29.50;49.20;;;;;;4923098;29;20502;-91
2023/09/11 13:30:20;;;;;;;10.18;5.78;;;29.60;49.10;;;;;;4925467;29;20058;-92
2023/09/11 13:32:47;;;;;;;11.05;6.35;;;29.50;48.20;;;;;;4925794;29;20047;-90
2023/09/11 13:35:15;;;;;;;11.57;6.73;;;29.50;49.10;;;;;;4924464;29;20050;-91
2023/09/11 13:37:42;;;;;;;13.27;7.47;;;29.50;49.40;;;;;;4926699;29;20061;-92
2023/09/11 13:40:15;;;;;;;9.52;6.07;;;29.60;50.40;;;;;;4926531;29;20106;-92
2023/09/11 13:42:49;;;;;;;17.10;11.05;;;29.60;48.70;;;;;;4926704;29;20047;-93
2023/09/11 13:45:17;;;;;;;14.40;10.02;;;29.60;48.60;;;;;;4926193;29;20409;-91
2023/09/11 13:47:44;;;;;;;12.53;9.17;;;29.60;49.20;;;;;;4942032;29;20051;-90
2023/09/11 13:50:12;;;;;;;10.30;7.10;;;29.60;48.70;;;;;;4925108;29;20078;-92
2023/09/11 13:52:39;;;;;;;10.85;6.85;;;29.60;48.20;;;;;;4923094;29;20142;-91
2023/09/11 13:55:07;;;;;;;10.98;6.10;;;29.60;48.70;;;;;;4918274;29;20048;-90
2023/09/11 13:57:35;;;;;;;15.73;7.38;;;29.60;48.70;;;;;;4920905;29;20111;-91
2023/09/11 14:00:05;;;;;;;13.10;7.10;;;29.60;49.10;;;;;;4921685;29;20039;-90
2023/09/11 14:02:37;;;;;;;14.60;7.07;;;29.60;48.90;;;;;;4925527;29;20043;-92
2023/09/11 14:05:05;;;;;;;19.88;7.03;;;29.60;48.60;;;;;;4920161;29;20523;-91
2023/09/11 14:07:33;;;;;;;12.43;6.50;;;29.50;47.90;;;;;;4925572;29;20058;-92
2023/09/11 14:10:01;;;;;;;11.30;6.30;;;29.60;48.10;;;;;;4925731;29;20098;-91
2023/09/11 14:12:28;;;;;;;10.10;5.87;;;29.60;48.10;;;;;;4941142;29;20398;-92
2023/09/11 14:14:55;;;;;;;12.35;6.18;;;29.60;49.00;;;;;;4925403;29;20571;-92
2023/09/11 14:17:22;;;;;;;14.00;8.98;;;29.60;48.20;;;;;;4923760;29;20118;-91
2023/09/11 14:19:49;;;;;;;13.73;9.15;;;29.60;48.50;;;;;;4906795;29;20079;-91